Flight Track Log - Related Links

Times and Time Zones

All times are in EDT time to prevent confusion due to time zone crossing. See the ASQ4892 flight status page for this flight to view local times or setup timezone preferences in your user account.

Time Position Orientation Groundspeed Altitude Reporting Facility
EDT Latitude Longitude Course Direction KTS MPH feet Rate Location/Type
Thu 12:58:13 PM 42.7700 -73.8067 343° North 177 204 1,200  Level Boston Center
Thu 12:59:08 PM 42.8139 -73.8244 343° North 202 232 3,600 2,622 Climbing Boston Center
Thu 01:00:12 PM 42.8542 -73.8950 308° West 218 251 6,400 2,352 Climbing Boston Center
Thu 01:01:13 PM 42.8803 -73.9706 295° West 235 270 8,500 2,146 Climbing Boston Center
Thu 01:02:15 PM 42.8775 -74.0806 268° West 273 314 10,800 1,756 Climbing Boston Center
Thu 01:03:16 PM 42.8208 -74.1572 225° Southwest 303 349 12,100 1,891 Climbing Boston Center
Thu 01:05:19 PM 42.6356 -74.2081 191° South 354 407 16,600 1,957 Climbing Boston Center
Thu 01:06:20 PM 42.5375 -74.1650 162° South 373 429 18,100 1,328 Climbing Boston Center
Thu 01:07:21 PM 42.4403 -74.1219 162° South 382 440 19,300 1,366 Climbing Boston Center
Thu 01:08:23 PM 42.3392 -74.0775 162° South 382 440 20,900 1,415 Climbing Boston Center
Thu 01:09:24 PM 42.2317 -74.0378 165° South 398 458 22,200 1,122 Climbing Boston Center
Thu 01:10:26 PM 42.1183 -74.0400 181° South 406 467 23,200 976 Climbing Boston Center
Thu 01:11:27 PM 42.0019 -74.0486 183° South 417 480 24,200 1,082 Climbing Boston Center
Thu 01:12:28 PM 41.8578 -74.0564 182° South 430 495 25,400 1,024 Climbing Boston Center
Thu 01:13:30 PM 41.7464 -74.0619 182° South 431 496 26,300 927 Climbing Boston Center
Thu 01:14:31 PM 41.6236 -74.0719 183° South 442 509 27,300 976 Climbing Boston Center
Thu 01:15:33 PM 41.5133 -74.1350 203° Southwest 437 503 28,300 1,073 Climbing Boston Center
Thu 01:16:34 PM 41.4011 -74.2533 218° Southwest 432 497 29,500 1,080 Climbing Boston Center
Thu 01:17:13 PM 41.3456 -74.3222 223° Southwest 433 498 30,100 909 Climbing New York Center
Thu 01:18:13 PM 41.2700 -74.4147 223° Southwest 425 489 31,000 950 Climbing New York Center
Thu 01:19:13 PM 41.1772 -74.5117 218° Southwest 425 489 32,000 1,000 Climbing New York Center
Thu 01:20:13 PM 41.0867 -74.6114 220° Southwest 425 489 33,000 1,000 Climbing New York Center
Thu 01:21:13 PM 40.9981 -74.7108 220° Southwest 425 489 34,000 500 Climbing New York Center
Thu 01:22:13 PM 40.9072 -74.8097 219° Southwest 425 489 34,000  Level New York Center
Thu 01:23:13 PM 40.8139 -74.9111 219° Southwest 425 489 34,000  Level New York Center
Thu 01:24:13 PM 40.7228 -75.0153 221° Southwest 431 496 34,000  Level New York Center
Thu 01:25:13 PM 40.6317 -75.1133 219° Southwest 431 496 34,000  Level New York Center
Thu 01:26:13 PM 40.5383 -75.2167 220° Southwest 431 496 34,000  Level New York Center
Thu 01:27:13 PM 40.4447 -75.3197 220° Southwest 436 502 34,000  Level New York Center
Thu 01:28:13 PM 40.3511 -75.4225 220° Southwest 441 507 34,000  Level New York Center
Thu 01:29:13 PM 40.2597 -75.5225 220° Southwest 441 507 34,000  Level New York Center
Thu 01:30:13 PM 40.1817 -75.6450 230° Southwest 441 507 34,000  Level New York Center
Thu 01:31:13 PM 40.1136 -75.7786 236° Southwest 446 513 34,000  Level New York Center
Thu 01:32:13 PM 40.0494 -75.9122 238° Southwest 446 513 34,000  Level New York Center
Thu 01:33:13 PM 39.9811 -76.0428 236° Southwest 446 513 34,000  Level New York Center
Thu 01:34:14 PM 39.9078 -76.1889 237° Southwest 440 506 34,000  Level New York Center
Thu 01:35:13 PM 39.8392 -76.3214 236° Southwest 445 512 34,000  Level New York Center
Thu 01:36:13 PM 39.7603 -76.4422 230° Southwest 445 512 34,000  Level New York Center
Thu 01:37:41 PM 39.6489 -76.6075 229° Southwest 445 512 34,000  Level Washington Center
Thu 01:38:39 PM 39.5686 -76.7250 228° Southwest 440 506 34,000  Level Washington Center
Thu 01:39:39 PM 39.4906 -76.8419 229° Southwest 440 506 34,000  Level Washington Center
Thu 01:40:40 PM 39.4100 -76.9589 228° Southwest 440 506 34,000  Level Washington Center
Thu 01:41:41 PM 39.3317 -77.0753 229° Southwest 440 506 34,000  Level Washington Center
Thu 01:42:41 PM 39.2531 -77.1917 229° Southwest 440 506 34,000  Level Washington Center
Thu 01:43:39 PM 39.1722 -77.3078 228° Southwest 440 506 34,000  Level Washington Center
Thu 01:44:40 PM 39.0911 -77.4261 229° Southwest 440 506 34,000  Level Washington Center
Thu 01:45:41 PM 39.0100 -77.5444 229° Southwest 440 506 34,000  Level Washington Center
Thu 01:46:39 PM 38.9292 -77.6569 227° Southwest 440 506 34,000  Level Washington Center
Thu 01:47:39 PM 38.8542 -77.7642 228° Southwest 440 506 34,000  Level Washington Center
Thu 01:48:41 PM 38.7642 -77.8972 229° Southwest 454 522 34,000  Level Washington Center
Thu 01:49:41 PM 38.6825 -78.0144 228° Southwest 454 522 34,000  Level Washington Center
Thu 01:50:39 PM 38.5989 -78.1311 227° Southwest 449 517 34,000  Level Washington Center
Thu 01:51:40 PM 38.5172 -78.2478 228° Southwest 449 517 34,000  Level Washington Center
Thu 01:52:41 PM 38.4353 -78.3642 228° Southwest 454 522 34,000  Level Washington Center
Thu 01:53:39 PM 38.3511 -78.4803 227° Southwest 454 522 34,000  Level Washington Center
Thu 01:54:40 PM 38.2692 -78.5961 228° Southwest 449 517 34,000  Level Washington Center
Thu 01:55:41 PM 38.1997 -78.7017 230° Southwest 449 517 34,000  Level Washington Center
Thu 01:56:41 PM 38.1089 -78.8272 227° Southwest 449 517 34,000  Level Washington Center
Thu 01:57:39 PM 38.0242 -78.9447 228° Southwest 456 525 34,000  Level Washington Center
Thu 01:58:39 PM 37.9417 -79.0569 227° Southwest 451 519 34,000  Level Washington Center
Thu 01:59:40 PM 37.8569 -79.1742 228° Southwest 451 519 34,000  Level Washington Center
Thu 02:00:40 PM 37.7831 -79.2783 228° Southwest 451 519 34,000  Level Washington Center
Thu 02:01:41 PM 37.6872 -79.4047 226° Southwest 456 525 34,000  Level Washington Center
Thu 02:02:39 PM 37.6019 -79.5211 227° Southwest 456 525 34,000  Level Washington Center
Thu 02:03:39 PM 37.5189 -79.6372 228° Southwest 456 525 34,000  Level Washington Center
Thu 02:04:40 PM 37.4314 -79.7583 228° Southwest 460 529 34,000  Level Washington Center
Thu 02:05:41 PM 37.3567 -79.8614 228° Southwest 468 539 34,000  Level Washington Center
Thu 02:06:39 PM 37.2714 -79.9767 227° Southwest 462 532 34,000  Level Washington Center
Thu 02:08:34 PM 37.1075 -80.1950 227° Southwest 454 522 34,000  Level Atlanta Center
Thu 02:09:34 PM 37.0233 -80.3056 226° Southwest 454 522 34,000  Level Atlanta Center
Thu 02:10:34 PM 36.9392 -80.4186 227° Southwest 449 517 34,000  Level Atlanta Center
Thu 02:11:34 PM 36.8508 -80.5342 226° Southwest 449 517 34,000  Level Atlanta Center
Thu 02:12:34 PM 36.7603 -80.6575 228° Southwest 455 524 34,000 -200 Level Atlanta Center
Thu 02:13:34 PM 36.6778 -80.7669 227° Southwest 441 507 33,600 -500 Descending Atlanta Center
Thu 02:14:34 PM 36.5933 -80.8792 227° Southwest 441 507 33,000 -300 Descending Atlanta Center
Thu 02:15:34 PM 36.5125 -80.9881 227° Southwest 436 502 33,000  Level Atlanta Center
Thu 02:16:34 PM 36.4297 -81.0997 227° Southwest 431 496 33,000  Level Atlanta Center
Thu 02:17:34 PM 36.3531 -81.2031 227° Southwest 426 490 33,000  Level Atlanta Center
Thu 02:18:34 PM 36.2719 -81.3039 225° Southwest 415 478 33,000  Level Atlanta Center
Thu 02:19:34 PM 36.1947 -81.4042 226° Southwest 408 470 33,000  Level Atlanta Center
Thu 02:20:34 PM 36.1136 -81.5147 228° Southwest 413 475 33,000  Level Atlanta Center
Thu 02:21:34 PM 36.0344 -81.6147 226° Southwest 418 481 33,000  Level Atlanta Center
Thu 02:22:34 PM 35.9531 -81.7225 227° Southwest 418 481 33,000  Level Atlanta Center
Thu 02:23:34 PM 35.8736 -81.8247 226° Southwest 418 481 33,000  Level Atlanta Center
Thu 02:24:34 PM 35.7981 -81.9264 228° Southwest 418 481 33,000  Level Atlanta Center
Thu 02:25:34 PM 35.7100 -82.0286 223° Southwest 413 475 33,000  Level Atlanta Center
Thu 02:26:34 PM 35.6283 -82.1378 227° Southwest 418 481 33,000  Level Atlanta Center
Thu 02:27:34 PM 35.5425 -82.2469 226° Southwest 433 498 33,000  Level Atlanta Center
Thu 02:28:34 PM 35.4564 -82.3561 226° Southwest 444 511 33,000  Level Atlanta Center
Thu 02:29:34 PM 35.3681 -82.4672 226° Southwest 444 511 33,000  Level Atlanta Center
Thu 02:30:34 PM 35.2819 -82.5783 227° Southwest 451 519 33,000  Level Atlanta Center
Thu 02:31:34 PM 35.1994 -82.6739 223° Southwest 451 519 33,000  Level Atlanta Center
Thu 02:32:34 PM 35.1150 -82.7769 225° Southwest 451 519 33,000  Level Atlanta Center
Thu 02:33:34 PM 35.0306 -82.8822 226° Southwest 445 512 33,000 -200 Level Atlanta Center
Thu 02:34:34 PM 34.9481 -82.9847 226° Southwest 433 498 32,600 -800 Descending Atlanta Center
Thu 02:35:34 PM 34.8611 -83.0919 225° Southwest 415 478 31,400 -1,400 Descending Atlanta Center
Thu 02:36:34 PM 34.7847 -83.1789 223° Southwest 386 444 29,800 -1,650 Descending Atlanta Center
Thu 02:37:34 PM 34.7247 -83.2628 229° Southwest 374 430 28,100 -2,050 Descending Atlanta Center
Thu 02:38:34 PM 34.6375 -83.3444 218° Southwest 367 422 25,700 -2,050 Descending Atlanta Center
Thu 02:39:34 PM 34.5669 -83.4131 219° Southwest 367 422 24,000 -1,850 Descending Atlanta Center
Thu 02:40:34 PM 34.5217 -83.5219 243° Southwest 342 394 22,000 -1,850 Descending Atlanta Center
Thu 02:41:34 PM 34.4969 -83.6306 255° West 347 399 20,300 -1,550 Descending Atlanta Center
Thu 02:42:34 PM 34.4219 -83.6889 213° Southwest 320 368 18,900 -1,150 Descending Atlanta Center
Thu 02:43:34 PM 34.3322 -83.7319 202° Southwest 326 375 18,000 -1,100 Descending Atlanta Center
Thu 02:44:34 PM 34.2364 -83.7725 199° South 353 406 16,700 -1,450 Descending Atlanta Center
Thu 02:45:34 PM 34.1383 -83.8206 202° Southwest 353 406 15,100 -1,750 Descending Atlanta Center
Thu 02:46:34 PM 34.0531 -83.8808 210° Southwest 353 406 13,200 -1,875 Descending Atlanta Center
Thu 02:47:10 PM 34.0000 -83.9333 219° Southwest 395 455 12,100 -1,375 Descending Atlanta TRACON
Thu 02:48:10 PM 33.9333 -84.0333 231° Southwest 364 419 11,000 -579 Descending Atlanta TRACON
Thu 02:49:04 PM 33.8833 -84.1000 228° Southwest 322 371 11,000  Level Atlanta TRACON
Thu 02:49:34 PM 33.8444 -84.1214 205° Southwest 332 382 11,000  Level Atlanta Center
Thu 02:50:34 PM 33.7797 -84.1239 182° South 250 288 11,000  Level Atlanta Center
Thu 02:51:10 PM 33.7667 -84.1667 250° West 239 275 11,000  Level Atlanta TRACON
Thu 02:52:10 PM 33.7500 -84.2500 256° West 247 284 11,000 -50 Level Atlanta TRACON
Thu 02:53:10 PM 33.7333 -84.3333 256° West 250 288 10,900 -700 Descending Atlanta TRACON
Thu 02:54:10 PM 33.7333 -84.4000 270° West 238 274 9,600 -1,300 Descending Atlanta TRACON
Thu 02:55:10 PM 33.7333 -84.4833 270° West 213 245 8,300 -1,300 Descending Atlanta TRACON
Thu 02:56:10 PM 33.7333 -84.5500 270° West 211 243 7,000 -1,339 Descending Atlanta TRACON
Thu 02:57:11 PM 33.7333 -84.6167 270° West 207 238 5,600 -1,686 Descending Atlanta TRACON
Thu 02:58:11 PM 33.6833 -84.6333 196° South 190 219 3,600 -1,150 Descending Atlanta TRACON
Thu 02:59:11 PM 33.6500 -84.6000 140° Southeast 179 206 3,300 -350 Descending Atlanta TRACON
Thu 03:00:11 PM 33.6500 -84.5500 90° East 161 185 2,900 -600 Descending Atlanta TRACON
Thu 03:01:11 PM 33.6500 -84.5000 90° East 138 159 2,100 -800 Descending Atlanta TRACON
Thu 03:02:11 PM 33.6500 -84.4500 90° East 146 168 1,300 -800 Descending Atlanta TRACON
Thu 03:04:00 PM 33.6367 -84.4279 103° East  Level Estimated
Thu 03:11:00 PM 33.6367 -84.4279 103° East  Level Estimated

Login

Don't have an account? Register now (free) for customized features, flight alerts, and more!